Time;durP1;ratioP1;P1;durP2;ratioP2;P2;SDS_P1;SDS_P2;PMS_P1;PMS_P2;Temp;Humidity;BMP_temperature;BMP_pressure;BME280_temperature;BME280_humidity;BME280_pressure;Samples;Min_cycle;Max_cycle;Signal;HPM_P1;HPM_P2
2021/09/30 00:00:09;;;;;;;0.80;0.80;;;8.90;99.90;;;;;;5013276;28;20026;-78
2021/09/30 00:02:35;;;;;;;1.55;0.98;;;8.80;99.90;;;;;;4992263;28;20535;-77
2021/09/30 00:05:01;;;;;;;2.75;0.88;;;8.80;99.90;;;;;;5009084;28;20072;-77
2021/09/30 00:07:27;;;;;;;0.60;0.60;;;8.70;99.90;;;;;;4995563;28;20030;-77
2021/09/30 00:09:53;;;;;;;1.65;0.68;;;8.70;99.90;;;;;;5010737;28;20026;-78
2021/09/30 00:12:23;;;;;;;1.13;0.95;;;8.70;99.90;;;;;;4987349;28;20547;-77
2021/09/30 00:14:56;;;;;;;0.68;0.68;;;8.60;99.90;;;;;;5012636;28;20397;-78
2021/09/30 00:17:44;;;;;;;1.20;1.10;;;8.60;99.90;;;;;;5011322;28;20030;-77
2021/09/30 00:52:18;;;;;;;1.75;1.10;;;8.40;99.90;;;;;;5015500;28;20041;-77
2021/09/30 00:55:03;;;;;;;1.20;1.10;;;8.40;99.90;;;;;;4988003;28;20046;-77
2021/09/30 01:45:29;;;;;;;2.22;1.95;;;8.30;99.90;;;;;;5024709;28;20538;-79
2021/09/30 02:21:01;;;;;;;2.90;2.58;;;8.40;99.90;;;;;;5007792;28;20509;-80
2021/09/30 02:28:16;;;;;;;4.95;2.83;;;8.30;99.90;;;;;;5001396;28;20409;-79
2021/09/30 02:58:32;;;;;;;2.05;1.85;;;8.20;99.90;;;;;;5002103;28;20053;-78
2021/09/30 03:01:19;;;;;;;2.33;1.90;;;8.10;99.90;;;;;;4988795;28;20126;-79
2021/09/30 03:03:47;;;;;;;1.88;1.67;;;8.10;99.90;;;;;;4990704;28;20535;-79
2021/09/30 03:06:14;;;;;;;2.22;2.08;;;8.10;99.90;;;;;;5006293;28;20044;-78
2021/09/30 03:08:51;;;;;;;4.28;2.78;;;8.10;99.90;;;;;;5001651;28;20026;-79
2021/09/30 03:11:21;;;;;;;4.03;2.25;;;8.10;99.90;;;;;;5002006;28;20401;-79
2021/09/30 03:13:49;;;;;;;3.35;2.20;;;8.00;99.90;;;;;;5004662;28;20026;-79
2021/09/30 03:22:15;;;;;;;2.45;2.05;;;7.90;99.90;;;;;;5005637;28;20026;-79
2021/09/30 03:24:42;;;;;;;;;;;7.80;99.90;;;;;;5004920;28;20026;-80
2021/09/30 03:27:10;;;;;;;3.45;2.60;;;7.80;99.90;;;;;;5003268;28;20281;-79
2021/09/30 03:29:37;;;;;;;2.50;2.20;;;7.80;99.90;;;;;;5004415;28;20092;-80
2021/09/30 03:32:04;;;;;;;3.22;2.58;;;7.70;99.90;;;;;;5007957;28;20037;-78
2021/09/30 03:34:49;;;;;;;4.60;2.53;;;7.70;99.90;;;;;;5000787;28;21375;-79
2021/09/30 03:37:15;;;;;;;4.93;2.90;;;7.70;99.90;;;;;;5002284;28;20031;-79
2021/09/30 03:39:42;;;;;;;2.50;2.30;;;7.70;99.90;;;;;;5003472;28;20026;-80
2021/09/30 03:42:08;;;;;;;3.10;2.45;;;7.60;99.90;;;;;;5006694;28;20369;-77
2021/09/30 03:44:38;;;;;;;3.40;2.63;;;7.60;99.90;;;;;;4990288;28;20022;-80
2021/09/30 03:47:06;;;;;;;2.83;2.15;;;7.50;99.90;;;;;;5010552;28;20256;-79
2021/09/30 03:49:45;;;;;;;4.82;2.42;;;7.50;99.90;;;;;;4981415;28;20029;-80
2021/09/30 03:52:21;;;;;;;3.70;2.70;;;7.50;99.90;;;;;;4993086;28;20116;-79
2021/09/30 04:00:05;;;;;;;2.78;2.20;;;7.40;99.90;;;;;;4976932;28;20069;-80
2021/09/30 04:02:51;;;;;;;5.03;2.58;;;7.30;99.90;;;;;;4997527;28;20125;-80
2021/09/30 04:05:17;;;;;;;3.92;2.42;;;7.30;99.90;;;;;;4991366;28;20027;-79
2021/09/30 04:07:43;;;;;;;2.50;2.30;;;7.30;99.90;;;;;;4987665;28;20081;-81
2021/09/30 04:10:09;;;;;;;3.05;2.60;;;7.30;99.90;;;;;;4992888;28;20031;-80
2021/09/30 04:12:35;;;;;;;4.00;2.50;;;7.30;99.90;;;;;;4994183;28;20580;-80
2021/09/30 04:15:03;;;;;;;2.85;2.15;;;7.40;99.90;;;;;;4993110;28;20026;-80
2021/09/30 04:17:29;;;;;;;2.40;2.20;;;7.40;99.90;;;;;;5004922;28;20026;-79
2021/09/30 04:19:55;;;;;;;5.82;2.40;;;7.40;99.90;;;;;;4992056;28;20030;-81
2021/09/30 04:22:20;;;;;;;2.58;2.17;;;7.40;99.90;;;;;;4978765;28;20026;-81
2021/09/30 04:24:48;;;;;;;3.72;2.67;;;7.30;99.90;;;;;;5007148;28;20149;-80
2021/09/30 04:27:15;;;;;;;4.30;2.20;;;7.30;99.90;;;;;;4990662;28;20039;-80
2021/09/30 04:29:44;;;;;;;1.90;1.80;;;7.30;99.90;;;;;;5009825;28;20026;-79
2021/09/30 04:32:10;;;;;;;3.33;1.73;;;7.30;99.90;;;;;;5011438;28;20038;-79
2021/09/30 04:34:36;;;;;;;2.42;2.13;;;7.30;99.90;;;;;;5006615;28;20034;-79
2021/09/30 04:37:02;;;;;;;1.77;1.67;;;7.30;99.90;;;;;;5009082;28;20484;-79
2021/09/30 04:39:29;;;;;;;3.20;2.08;;;7.40;99.90;;;;;;4987167;28;20041;-79
2021/09/30 04:41:54;;;;;;;3.03;1.70;;;7.30;99.90;;;;;;4995077;28;20030;-79
2021/09/30 04:44:22;;;;;;;4.05;2.40;;;7.30;99.90;;;;;;4992256;28;20042;-80
2021/09/30 04:46:51;;;;;;;2.38;1.80;;;7.30;99.90;;;;;;5008360;28;20037;-79
2021/09/30 04:49:37;;;;;;;2.47;1.55;;;7.30;99.90;;;;;;5012166;28;20467;-79
2021/09/30 04:52:03;;;;;;;1.85;1.65;;;7.30;99.90;;;;;;4990909;28;20045;-78
2021/09/30 04:54:32;;;;;;;2.40;1.70;;;7.30;99.90;;;;;;4992444;28;20452;-80
2021/09/30 04:56:57;;;;;;;2.00;1.80;;;7.30;99.90;;;;;;5009642;28;20033;-79
2021/09/30 04:59:28;;;;;;;3.05;2.47;;;7.30;99.90;;;;;;5009401;28;20029;-79
2021/09/30 05:02:21;;;;;;;1.98;1.50;;;7.30;99.90;;;;;;4989230;28;20092;-79
2021/09/30 05:04:47;;;;;;;2.17;1.75;;;7.30;99.90;;;;;;4991930;28;20026;-79
2021/09/30 05:07:14;;;;;;;2.33;1.80;;;7.30;99.90;;;;;;4974457;28;20050;-80
2021/09/30 05:09:40;;;;;;;2.00;1.60;;;7.30;99.90;;;;;;4986972;28;20061;-79
2021/09/30 05:12:08;;;;;;;3.55;1.90;;;7.30;99.90;;;;;;5007719;28;20403;-79
2021/09/30 05:14:35;;;;;;;2.30;1.85;;;7.20;99.90;;;;;;4973301;28;20038;-78
2021/09/30 05:17:01;;;;;;;3.10;2.08;;;7.20;99.90;;;;;;4993106;28;20040;-79
2021/09/30 05:19:40;;;;;;;4.18;1.95;;;7.30;99.90;;;;;;4978727;28;20029;-79
2021/09/30 05:22:08;;;;;;;2.50;2.03;;;7.30;99.90;;;;;;5001587;28;20030;-79
2021/09/30 05:24:34;;;;;;;4.82;1.80;;;7.30;99.90;;;;;;4984265;28;20026;-79
2021/09/30 05:27:01;;;;;;;1.95;1.58;;;7.30;99.90;;;;;;5001853;28;20080;-78
2021/09/30 05:29:27;;;;;;;2.33;2.05;;;7.30;99.90;;;;;;5008975;28;20460;-80
2021/09/30 05:32:08;;;;;;;2.50;1.92;;;7.30;99.90;;;;;;4990417;28;20044;-80
2021/09/30 05:34:48;;;;;;;3.67;2.10;;;7.30;99.90;;;;;;5020369;28;20034;-79
2021/09/30 05:37:14;;;;;;;2.03;1.75;;;7.30;99.90;;;;;;5006623;28;20037;-80
2021/09/30 05:39:41;;;;;;;3.38;2.00;;;7.30;99.90;;;;;;4971038;28;20034;-79
2021/09/30 05:42:06;;;;;;;2.33;1.83;;;7.30;99.90;;;;;;5004033;28;20040;-79
2021/09/30 05:44:33;;;;;;;4.43;2.13;;;7.30;99.90;;;;;;4957550;28;20029;-79
2021/09/30 05:47:02;;;;;;;3.10;1.98;;;7.30;99.90;;;;;;4988656;28;20501;-79
2021/09/30 05:49:28;;;;;;;5.57;2.05;;;7.30;99.90;;;;;;4977686;28;20068;-79
2021/09/30 05:52:23;;;;;;;4.60;2.38;;;7.30;99.90;;;;;;5008489;28;20092;-79
2021/09/30 05:54:55;;;;;;;2.83;2.17;;;7.30;99.90;;;;;;4990504;28;20044;-80
2021/09/30 05:57:25;;;;;;;2.88;1.80;;;7.30;99.90;;;;;;4989624;28;20029;-79
2021/09/30 05:59:51;;;;;;;2.40;2.20;;;7.30;99.90;;;;;;4988234;28;20025;-78
2021/09/30 06:12:42;;;;;;;2.75;2.10;;;7.40;99.90;;;;;;5006813;28;20048;-79
2021/09/30 06:15:17;;;;;;;4.53;3.03;;;7.40;99.90;;;;;;5004536;28;20037;-78
2021/09/30 06:17:46;;;;;;;4.28;3.05;;;7.50;99.90;;;;;;4991727;28;20030;-79
2021/09/30 06:20:14;;;;;;;4.15;3.10;;;7.80;99.90;;;;;;5005326;28;20026;-79
2021/09/30 06:22:40;;;;;;;7.28;3.17;;;8.00;99.90;;;;;;5002319;28;20048;-79
2021/09/30 06:25:06;;;;;;;5.15;3.30;;;8.20;99.90;;;;;;4955519;28;20033;-79
2021/09/30 06:27:32;;;;;;;4.95;3.53;;;8.40;99.90;;;;;;4956541;28;20029;-79
2021/09/30 06:29:59;;;;;;;4.28;3.22;;;8.60;99.90;;;;;;4991225;28;20029;-79
2021/09/30 06:32:25;;;;;;;5.88;3.40;;;8.90;99.90;;;;;;4988998;28;20030;-79
2021/09/30 06:35:11;;;;;;;5.68;3.50;;;9.10;99.90;;;;;;4991608;28;20121;-78
2021/09/30 06:37:44;;;;;;;6.38;2.97;;;9.40;99.90;;;;;;4988251;28;20109;-79
2021/09/30 06:40:10;;;;;;;5.57;3.63;;;9.60;99.90;;;;;;4988279;28;20026;-79
2021/09/30 06:42:36;;;;;;;4.43;2.92;;;9.80;99.90;;;;;;4957208;28;20045;-78
2021/09/30 06:45:28;;;;;;;4.13;3.05;;;10.10;99.90;;;;;;5007160;28;20041;-78
2021/09/30 06:48:32;;;;;;;4.13;2.90;;;10.30;99.90;;;;;;5011221;28;20556;-79
2021/09/30 06:51:03;;;;;;;3.10;2.80;;;10.60;99.90;;;;;;5005365;28;20105;-78
2021/09/30 06:53:37;;;;;;;2.90;2.60;;;10.70;99.90;;;;;;5001691;28;20219;-79
2021/09/30 06:56:11;;;;;;;3.15;2.85;;;11.00;99.90;;;;;;5004187;28;20066;-79
2021/09/30 06:59:01;;;;;;;5.25;3.00;;;11.20;99.90;;;;;;4992227;28;20095;-79
2021/09/30 07:01:45;;;;;;;3.40;2.97;;;11.40;99.90;;;;;;4992126;28;20037;-79
2021/09/30 07:04:31;;;;;;;2.90;2.67;;;11.70;99.90;;;;;;5003496;28;20045;-79
2021/09/30 07:07:17;;;;;;;3.42;2.80;;;11.80;99.90;;;;;;4978242;28;20041;-79
2021/09/30 07:09:45;;;;;;;5.15;2.58;;;11.90;99.90;;;;;;4989549;28;20029;-79
2021/09/30 07:12:11;;;;;;;3.30;2.50;;;11.90;99.90;;;;;;4974277;28;20018;-76
2021/09/30 07:14:37;;;;;;;3.38;2.55;;;12.00;99.90;;;;;;4982231;28;20038;-79
2021/09/30 07:17:04;;;;;;;3.10;2.22;;;12.10;99.90;;;;;;4989358;28;20056;-79
2021/09/30 07:19:31;;;;;;;2.80;2.35;;;12.20;99.90;;;;;;4957763;28;20568;-80
2021/09/30 07:21:57;;;;;;;3.40;2.30;;;12.20;99.90;;;;;;5008483;28;20421;-79
2021/09/30 07:24:22;;;;;;;9.38;2.60;;;12.40;99.90;;;;;;4992612;28;20026;-79
2021/09/30 07:26:48;;;;;;;3.40;2.03;;;12.40;99.90;;;;;;4991166;28;20033;-80
2021/09/30 07:29:14;;;;;;;2.35;2.15;;;12.30;99.90;;;;;;5005617;28;20169;-79
2021/09/30 07:31:39;;;;;;;2.05;1.83;;;12.10;99.90;;;;;;5010856;28;20033;-80
2021/09/30 07:34:11;;;;;;;5.63;2.50;;;11.90;99.90;;;;;;4991493;28;20031;-78
2021/09/30 07:36:37;;;;;;;4.80;2.50;;;11.70;99.90;;;;;;5011486;28;20453;-79
2021/09/30 07:39:03;;;;;;;3.47;2.75;;;11.60;99.90;;;;;;4995628;28;20065;-79
2021/09/30 07:41:28;;;;;;;3.63;2.65;;;11.40;99.90;;;;;;4993148;28;20033;-78
2021/09/30 07:43:54;;;;;;;3.03;2.70;;;11.30;99.90;;;;;;4991337;28;20038;-80
2021/09/30 07:46:20;;;;;;;4.13;3.03;;;11.10;99.90;;;;;;5009968;28;20033;-79
2021/09/30 07:48:46;;;;;;;3.47;3.17;;;10.90;99.90;;;;;;4993182;28;20041;-79
2021/09/30 07:51:12;;;;;;;3.95;3.55;;;10.80;99.90;;;;;;5011311;28;20066;-77
2021/09/30 07:53:38;;;;;;;4.38;3.70;;;10.90;99.90;;;;;;4976885;28;20034;-78
2021/09/30 07:56:04;;;;;;;5.28;3.47;;;11.00;99.90;;;;;;4994740;28;20045;-79
2021/09/30 07:58:30;;;;;;;5.03;2.80;;;11.10;99.90;;;;;;4992631;28;20625;-78
2021/09/30 08:00:56;;;;;;;6.15;3.38;;;11.10;99.90;;;;;;5009552;28;20400;-80
2021/09/30 08:03:21;;;;;;;4.95;3.33;;;11.10;99.90;;;;;;4990521;28;20026;-79
2021/09/30 08:05:47;;;;;;;3.78;2.88;;;11.10;99.90;;;;;;4990600;28;20036;-80
2021/09/30 08:08:13;;;;;;;2.92;2.42;;;11.10;99.90;;;;;;5008578;28;20378;-79
2021/09/30 08:10:39;;;;;;;5.03;3.20;;;11.10;99.90;;;;;;4993815;28;20022;-78
2021/09/30 08:13:05;;;;;;;2.83;2.63;;;11.00;99.90;;;;;;5008849;28;20476;-79
2021/09/30 08:15:31;;;;;;;5.57;3.33;;;11.00;99.90;;;;;;4989820;28;20515;-79
2021/09/30 08:17:57;;;;;;;3.63;2.97;;;10.90;99.90;;;;;;5006054;28;20062;-79
2021/09/30 08:20:24;;;;;;;3.78;3.10;;;10.80;99.90;;;;;;4976035;28;20030;-79
2021/09/30 08:22:50;;;;;;;3.30;3.00;;;10.60;99.90;;;;;;4994305;28;20388;-79
2021/09/30 08:25:16;;;;;;;6.72;3.30;;;10.50;99.90;;;;;;5007624;28;20061;-80
2021/09/30 08:27:42;;;;;;;6.35;3.53;;;10.40;99.90;;;;;;5010798;28;20057;-79
2021/09/30 08:30:08;;;;;;;3.33;3.03;;;10.40;99.90;;;;;;5007946;28;20044;-77
2021/09/30 08:32:35;;;;;;;4.30;3.42;;;10.30;99.90;;;;;;5003706;28;20034;-81
2021/09/30 08:35:01;;;;;;;5.10;3.85;;;10.20;99.90;;;;;;4992897;28;20444;-79
2021/09/30 08:37:26;;;;;;;5.75;3.20;;;10.10;99.90;;;;;;4962626;28;20089;-79
2021/09/30 08:39:54;;;;;;;4.43;3.28;;;10.10;99.90;;;;;;5008282;28;20033;-79
2021/09/30 08:42:20;;;;;;;4.88;3.60;;;10.10;99.90;;;;;;5006044;28;20496;-79
2021/09/30 08:44:46;;;;;;;5.47;3.38;;;10.00;99.90;;;;;;5009469;28;20026;-79
2021/09/30 08:47:11;;;;;;;4.65;3.10;;;10.00;99.90;;;;;;4994083;28;20403;-80
2021/09/30 08:49:37;;;;;;;4.65;3.42;;;10.00;99.90;;;;;;5005889;28;20053;-78
2021/09/30 08:52:03;;;;;;;4.70;3.25;;;10.00;99.90;;;;;;5008568;28;20527;-79
2021/09/30 08:54:29;;;;;;;4.90;3.88;;;9.90;99.90;;;;;;5008383;28;20034;-79
2021/09/30 08:56:55;;;;;;;6.72;3.88;;;10.00;99.90;;;;;;4992783;28;20057;-79
2021/09/30 08:59:28;;;;;;;8.77;4.25;;;10.20;99.90;;;;;;5005875;28;20030;-80
2021/09/30 09:02:17;;;;;;;4.50;3.58;;;10.30;99.90;;;;;;4993979;28;20026;-80
2021/09/30 09:05:03;;;;;;;4.78;3.47;;;10.50;99.90;;;;;;5006105;28;20076;-81
2021/09/30 09:07:30;;;;;;;3.95;3.28;;;10.70;99.90;;;;;;4992903;28;20125;-80
2021/09/30 09:09:59;;;;;;;4.78;3.05;;;10.90;99.90;;;;;;5004767;28;20037;-80
2021/09/30 09:12:26;;;;;;;4.55;2.97;;;11.00;99.90;;;;;;4991017;28;20032;-80
2021/09/30 09:14:52;;;;;;;4.50;3.17;;;11.10;99.90;;;;;;5009058;28;20117;-80
2021/09/30 09:17:19;;;;;;;8.13;3.60;;;11.30;99.90;;;;;;5006069;28;20040;-80
2021/09/30 09:19:51;;;;;;;4.22;3.40;;;11.40;99.90;;;;;;4991879;28;20053;-80
2021/09/30 09:22:33;;;;;;;4.93;3.03;;;11.50;99.90;;;;;;4991427;28;20030;-80
2021/09/30 09:24:58;;;;;;;4.35;3.15;;;11.60;99.90;;;;;;4987043;28;20027;-80
2021/09/30 09:27:43;;;;;;;3.95;2.63;;;11.80;99.90;;;;;;4987276;28;20030;-81
2021/09/30 09:30:33;;;;;;;5.03;2.50;;;11.80;99.90;;;;;;4990905;28;20050;-78
2021/09/30 09:33:02;;;;;;;4.13;3.03;;;11.90;99.90;;;;;;5008255;28;20032;-80
2021/09/30 09:35:28;;;;;;;2.67;2.33;;;12.00;99.90;;;;;;5006492;28;20449;-80
2021/09/30 09:38:01;;;;;;;2.60;2.17;;;11.90;99.90;;;;;;4991818;28;20037;-80
2021/09/30 09:40:27;;;;;;;3.25;1.88;;;12.00;99.90;;;;;;4991546;28;20053;-80
2021/09/30 09:42:53;;;;;;;3.60;2.58;;;12.10;99.90;;;;;;4992529;28;20034;-79
2021/09/30 09:45:18;;;;;;;3.75;2.17;;;12.30;99.90;;;;;;4976871;28;20033;-80
2021/09/30 09:47:45;;;;;;;6.15;2.08;;;12.40;99.90;;;;;;5008470;28;20124;-80
2021/09/30 09:50:12;;;;;;;4.93;2.47;;;12.50;99.90;;;;;;4990875;28;20759;-80
2021/09/30 09:52:58;;;;;;;5.75;2.53;;;12.70;99.90;;;;;;5006960;28;20049;-80
2021/09/30 09:55:27;;;;;;;3.42;1.80;;;12.70;99.90;;;;;;4991046;28;20046;-80
2021/09/30 09:58:07;;;;;;;2.28;1.60;;;12.60;99.90;;;;;;4991628;28;20493;-79
2021/09/30 10:00:58;;;;;;;1.90;1.70;;;12.60;99.90;;;;;;5007209;28;20038;-80
2021/09/30 10:03:27;;;;;;;1.77;1.33;;;12.50;99.90;;;;;;5005161;28;20076;-79
2021/09/30 10:06:02;;;;;;;1.40;1.30;;;12.40;99.90;;;;;;5009017;28;20029;-80
2021/09/30 10:08:29;;;;;;;1.70;1.60;;;12.40;99.90;;;;;;4992308;28;20468;-80
2021/09/30 10:10:56;;;;;;;1.42;1.20;;;12.50;99.90;;;;;;4989158;28;20030;-79
2021/09/30 10:13:26;;;;;;;1.70;1.10;;;12.40;99.90;;;;;;4989552;28;20034;-78
2021/09/30 10:15:54;;;;;;;2.17;1.25;;;12.50;99.90;;;;;;4992382;28;20547;-78
2021/09/30 10:18:25;;;;;;;3.55;1.48;;;12.50;99.90;;;;;;4975040;28;20038;-80
2021/09/30 10:20:51;;;;;;;1.48;1.33;;;12.60;99.90;;;;;;4975451;28;20499;-80
2021/09/30 10:23:30;;;;;;;1.77;0.90;;;12.60;99.90;;;;;;5007541;28;20475;-80
2021/09/30 10:26:18;;;;;;;3.95;1.10;;;12.70;99.90;;;;;;4991826;28;20041;-80
2021/09/30 10:28:45;;;;;;;2.10;1.10;;;12.60;99.90;;;;;;4991414;28;20719;-78
2021/09/30 10:31:28;;;;;;;1.83;0.98;;;12.50;99.90;;;;;;5002162;28;20476;-80
2021/09/30 10:33:56;;;;;;;3.17;0.80;;;12.50;99.90;;;;;;5003146;28;20040;-80
2021/09/30 10:36:39;;;;;;;1.35;0.77;;;12.50;99.90;;;;;;4974368;28;20040;-81
2021/09/30 10:39:23;;;;;;;5.47;0.73;;;12.40;99.90;;;;;;5004447;28;20081;-78
2021/09/30 10:41:55;;;;;;;3.40;0.75;;;12.20;99.90;;;;;;5003383;28;20033;-80
2021/09/30 10:44:40;;;;;;;1.50;0.60;;;12.20;99.90;;;;;;5005437;28;20029;-80
2021/09/30 10:47:07;;;;;;;3.53;1.10;;;12.10;99.90;;;;;;5006232;28;20580;-80
2021/09/30 10:49:44;;;;;;;2.20;0.63;;;12.00;99.90;;;;;;5004755;28;20038;-79
2021/09/30 10:52:18;;;;;;;0.90;0.50;;;12.00;99.90;;;;;;5007251;28;20480;-79
2021/09/30 10:55:02;;;;;;;3.50;0.70;;;12.00;99.90;;;;;;5006830;28;20022;-79
2021/09/30 10:57:53;;;;;;;2.05;0.77;;;11.90;99.90;;;;;;5008328;28;20038;-79
2021/09/30 11:00:19;;;;;;;0.93;0.68;;;11.70;99.90;;;;;;5006669;28;20127;-78
2021/09/30 11:03:05;;;;;;;1.30;0.63;;;11.70;99.90;;;;;;5004382;28;20030;-80
2021/09/30 11:05:35;;;;;;;1.45;0.50;;;11.60;99.90;;;;;;5024559;28;20038;-79
2021/09/30 11:08:20;;;;;;;2.45;0.50;;;11.60;99.90;;;;;;5006865;28;20092;-79
2021/09/30 11:11:01;;;;;;;1.37;0.60;;;11.60;99.90;;;;;;4991349;28;20038;-79
2021/09/30 11:13:32;;;;;;;0.30;0.30;;;11.70;99.90;;;;;;5012720;28;20658;-79
2021/09/30 11:16:17;;;;;;;2.08;0.28;;;11.80;99.90;;;;;;5025221;28;20404;-78
2021/09/30 11:18:53;;;;;;;0.55;0.35;;;11.80;99.90;;;;;;5007632;28;20037;-79
2021/09/30 11:21:28;;;;;;;2.17;0.52;;;11.90;99.90;;;;;;5010251;28;20105;-79
2021/09/30 11:24:15;;;;;;;0.43;0.40;;;12.00;99.90;;;;;;5010579;28;20026;-78
2021/09/30 11:26:53;;;;;;;0.68;0.40;;;12.00;99.90;;;;;;5006346;28;20057;-79
2021/09/30 11:29:21;;;;;;;0.40;0.40;;;12.10;99.90;;;;;;5008655;28;20033;-79
2021/09/30 11:31:53;;;;;;;2.53;0.47;;;12.10;99.90;;;;;;4994380;28;20117;-79
2021/09/30 11:34:22;;;;;;;2.15;0.30;;;12.10;99.90;;;;;;5007274;28;20030;-80
2021/09/30 11:36:48;;;;;;;0.43;0.38;;;12.10;99.90;;;;;;5011819;28;20088;-80
2021/09/30 11:39:14;;;;;;;1.05;0.52;;;12.20;99.90;;;;;;4993428;28;20113;-80
2021/09/30 11:41:43;;;;;;;0.30;0.30;;;12.30;99.90;;;;;;4991750;28;20036;-80
2021/09/30 11:44:17;;;;;;;0.77;0.40;;;12.50;99.90;;;;;;4993799;28;20030;-79
2021/09/30 11:46:43;;;;;;;1.42;0.30;;;12.50;99.90;;;;;;4993120;28;20034;-79
2021/09/30 11:49:11;;;;;;;0.70;0.30;;;12.50;99.90;;;;;;5005443;28;20500;-78
2021/09/30 11:51:51;;;;;;;1.85;0.35;;;12.60;99.90;;;;;;5005738;28;20084;-78
2021/09/30 11:54:22;;;;;;;1.27;0.30;;;12.70;99.90;;;;;;5012827;28;20041;-79
2021/09/30 11:56:54;;;;;;;1.95;0.40;;;12.80;99.90;;;;;;5007716;28;20474;-80
2021/09/30 11:59:23;;;;;;;1.98;0.30;;;12.90;99.90;;;;;;5005767;28;20471;-79
2021/09/30 12:02:15;;;;;;;0.47;0.25;;;13.00;99.90;;;;;;4996515;28;20030;-80
2021/09/30 12:04:50;;;;;;;0.95;0.47;;;13.10;99.90;;;;;;5012521;28;20096;-81
2021/09/30 12:07:26;;;;;;;0.88;0.30;;;13.00;99.90;;;;;;4991236;28;20061;-80
2021/09/30 12:09:53;;;;;;;;;;;13.00;99.90;;;;;;5010878;28;20552;-79
2021/09/30 12:12:25;;;;;;;0.40;0.40;;;13.10;99.90;;;;;;5011503;28;20264;-81
2021/09/30 12:14:52;;;;;;;1.38;0.45;;;13.00;99.90;;;;;;5008076;28;20026;-79
2021/09/30 12:17:19;;;;;;;0.88;0.38;;;13.00;99.90;;;;;;5012237;28;20026;-80
2021/09/30 12:19:51;;;;;;;2.47;0.30;;;13.00;99.90;;;;;;5007748;28;20053;-80
2021/09/30 12:22:23;;;;;;;4.13;0.35;;;13.00;99.90;;;;;;5006235;28;20568;-81
2021/09/30 12:24:54;;;;;;;0.40;0.30;;;13.00;99.90;;;;;;5000230;28;20033;-79
2021/09/30 12:27:24;;;;;;;2.53;0.60;;;13.00;99.90;;;;;;5005393;28;20057;-78
2021/09/30 12:29:53;;;;;;;1.98;0.35;;;13.00;99.90;;;;;;5006633;28;20050;-79
2021/09/30 12:32:27;;;;;;;0.80;0.30;;;13.10;99.90;;;;;;5008104;28;20053;-80
2021/09/30 12:34:55;;;;;;;1.25;0.25;;;13.00;99.90;;;;;;5007703;28;20069;-79
2021/09/30 12:37:28;;;;;;;1.10;0.40;;;13.00;99.90;;;;;;4990308;28;20030;-79
2021/09/30 12:40:12;;;;;;;1.33;0.50;;;13.10;99.90;;;;;;5003020;28;20049;-79
2021/09/30 12:42:39;;;;;;;0.50;0.30;;;13.20;99.90;;;;;;5003787;28;20018;-78
2021/09/30 12:45:07;;;;;;;0.88;0.30;;;13.30;99.90;;;;;;5002371;28;20041;-79
2021/09/30 12:47:40;;;;;;;0.60;0.25;;;13.30;99.90;;;;;;4974283;28;20030;-78
2021/09/30 12:50:18;;;;;;;0.52;0.20;;;13.30;99.90;;;;;;5007199;28;20041;-79
2021/09/30 12:52:44;;;;;;;0.50;0.30;;;13.20;99.90;;;;;;5008095;28;20084;-79
2021/09/30 12:55:16;;;;;;;0.88;0.50;;;13.10;99.90;;;;;;5008869;28;20042;-80
2021/09/30 12:57:42;;;;;;;2.38;0.20;;;13.00;99.90;;;;;;5005223;28;20117;-79
2021/09/30 13:00:13;;;;;;;1.90;0.20;;;13.00;99.90;;;;;;5005087;28;20116;-79
2021/09/30 13:02:40;;;;;;;0.30;0.20;;;12.90;99.90;;;;;;5006464;28;20022;-78
2021/09/30 13:05:06;;;;;;;1.65;0.30;;;12.70;99.90;;;;;;5007684;28;20117;-80
2021/09/30 13:07:48;;;;;;;0.75;0.30;;;12.70;99.90;;;;;;4977957;28;20037;-80
2021/09/30 13:10:17;;;;;;;2.85;0.40;;;12.60;99.90;;;;;;5054201;22;20507;-86
2021/09/30 13:13:18;;;;;;;0.30;0.15;;;12.60;99.90;;;;;;4972966;28;20030;-85
2021/09/30 13:15:46;;;;;;;0.20;0.20;;;12.60;99.90;;;;;;5000880;28;20033;-85
2021/09/30 13:18:14;;;;;;;1.20;0.40;;;12.50;99.90;;;;;;5017661;28;20049;-85
2021/09/30 13:20:42;;;;;;;0.77;0.50;;;12.50;99.90;;;;;;5000914;28;20026;-84
2021/09/30 13:23:09;;;;;;;1.58;0.30;;;12.50;99.90;;;;;;4986062;28;20089;-86
2021/09/30 13:25:35;;;;;;;0.28;0.28;;;12.40;99.90;;;;;;4959992;28;20101;-86
2021/09/30 13:28:02;;;;;;;3.00;0.45;;;12.60;99.90;;;;;;4984508;28;20473;-87
2021/09/30 13:30:33;;;;;;;2.60;0.30;;;12.50;99.90;;;;;;4954369;28;20030;-87
2021/09/30 13:33:01;;;;;;;2.38;0.50;;;12.50;99.90;;;;;;5004572;28;20129;-85
2021/09/30 13:35:33;;;;;;;1.17;0.30;;;12.40;99.90;;;;;;4975039;28;20050;-86
2021/09/30 13:38:00;;;;;;;1.85;0.50;;;12.30;99.90;;;;;;4985002;28;20098;-86
2021/09/30 13:40:26;;;;;;;2.20;0.35;;;12.20;99.90;;;;;;5006240;28;20100;-88
2021/09/30 13:42:53;;;;;;;0.82;0.35;;;12.20;99.90;;;;;;4964953;28;20026;-88
2021/09/30 13:45:20;;;;;;;0.90;0.28;;;12.20;99.90;;;;;;5005509;28;20377;-87
2021/09/30 13:47:46;;;;;;;0.55;0.20;;;12.20;99.90;;;;;;4987801;28;20601;-87
2021/09/30 13:50:22;;;;;;;1.05;0.47;;;12.20;99.90;;;;;;4993473;28;20034;-87
2021/09/30 13:52:49;;;;;;;2.83;0.50;;;12.20;99.90;;;;;;5003593;28;20030;-88
2021/09/30 13:55:17;;;;;;;1.17;0.35;;;12.10;99.90;;;;;;4979396;28;20037;-87
2021/09/30 13:57:43;;;;;;;2.55;0.50;;;12.10;99.90;;;;;;4991105;28;20064;-87
2021/09/30 14:00:12;;;;;;;1.45;0.43;;;12.10;99.90;;;;;;5006621;28;20189;-88
2021/09/30 14:02:39;;;;;;;0.35;0.35;;;12.20;99.90;;;;;;5004711;28;20036;-87
2021/09/30 14:05:06;;;;;;;1.88;0.43;;;12.20;99.90;;;;;;5006520;28;20726;-87
2021/09/30 14:07:32;;;;;;;0.20;0.20;;;12.20;99.90;;;;;;4994096;28;20033;-86
2021/09/30 14:10:00;;;;;;;0.60;0.22;;;12.10;99.90;;;;;;4983123;28;20041;-87
2021/09/30 14:12:26;;;;;;;1.50;0.38;;;12.10;99.90;;;;;;4986815;28;20037;-86
2021/09/30 14:14:52;;;;;;;0.60;0.50;;;12.10;99.90;;;;;;5010380;28;20377;-86
2021/09/30 14:17:18;;;;;;;0.63;0.45;;;12.00;99.90;;;;;;4992467;28;20041;-85
2021/09/30 14:19:44;;;;;;;1.83;0.30;;;11.90;99.90;;;;;;4989303;28;20037;-86
2021/09/30 14:22:10;;;;;;;0.50;0.30;;;11.90;99.90;;;;;;4968549;28;20050;-85
2021/09/30 14:24:36;;;;;;;0.60;0.30;;;11.80;99.90;;;;;;4990577;28;20030;-85
2021/09/30 14:27:03;;;;;;;0.40;0.22;;;11.70;99.90;;;;;;4977717;28;20062;-86
2021/09/30 14:29:30;;;;;;;5.30;0.50;;;11.70;99.90;;;;;;5008740;28;20036;-86
2021/09/30 14:31:56;;;;;;;0.38;0.30;;;11.70;99.90;;;;;;4992174;28;20045;-86
2021/09/30 14:34:21;;;;;;;0.40;0.40;;;11.80;99.90;;;;;;5007547;28;20030;-87
2021/09/30 14:36:47;;;;;;;1.30;0.25;;;11.80;99.90;;;;;;4992654;28;20035;-88
2021/09/30 14:39:13;;;;;;;1.75;0.50;;;11.90;99.90;;;;;;4999031;28;20041;-88
2021/09/30 14:41:39;;;;;;;1.67;0.50;;;11.90;99.90;;;;;;4985315;28;20058;-87
2021/09/30 14:44:05;;;;;;;0.82;0.35;;;11.90;99.90;;;;;;4972004;28;20084;-88
2021/09/30 14:46:31;;;;;;;1.05;0.30;;;11.90;99.90;;;;;;4991340;28;20038;-86
2021/09/30 14:48:57;;;;;;;0.20;0.20;;;11.80;99.90;;;;;;4969978;28;20040;-89
2021/09/30 14:51:22;;;;;;;0.85;0.30;;;11.90;99.90;;;;;;4978814;28;20061;-87
2021/09/30 14:53:48;;;;;;;0.32;0.30;;;11.80;99.90;;;;;;4991760;28;20073;-88
2021/09/30 14:56:14;;;;;;;2.28;0.75;;;11.80;99.90;;;;;;4993807;28;20125;-86
2021/09/30 14:58:39;;;;;;;0.30;0.20;;;11.90;99.90;;;;;;4966228;28;20026;-87
2021/09/30 15:01:07;;;;;;;0.35;0.35;;;11.90;99.90;;;;;;4972529;28;20037;-86
2021/09/30 15:03:36;;;;;;;0.43;0.30;;;11.90;99.90;;;;;;4980185;28;20038;-86
2021/09/30 15:06:03;;;;;;;1.98;0.40;;;11.90;99.90;;;;;;4975964;28;20037;-86
2021/09/30 15:08:29;;;;;;;0.68;0.30;;;11.80;99.90;;;;;;4975529;28;20520;-86
2021/09/30 15:10:54;;;;;;;1.10;0.22;;;11.80;99.90;;;;;;5006619;28;20032;-86
2021/09/30 15:13:20;;;;;;;1.17;0.40;;;11.80;99.90;;;;;;4993894;28;20400;-87
2021/09/30 15:15:46;;;;;;;1.48;0.57;;;11.70;99.90;;;;;;4975385;28;20113;-86
2021/09/30 15:18:26;;;;;;;0.65;0.40;;;11.70;99.90;;;;;;4975421;28;20061;-85
2021/09/30 15:23:36;;;;;;;1.25;0.30;;;11.60;99.90;;;;;;5007246;28;20476;-87
2021/09/30 15:26:01;;;;;;;1.35;0.35;;;11.60;99.90;;;;;;4971524;28;20043;-87
2021/09/30 15:28:27;;;;;;;2.58;0.50;;;11.60;99.90;;;;;;5000639;28;20057;-86
2021/09/30 15:30:55;;;;;;;0.20;0.20;;;11.50;99.90;;;;;;4969983;28;20030;-87
2021/09/30 15:33:20;;;;;;;1.77;0.30;;;11.50;99.90;;;;;;4969511;28;20030;-85
2021/09/30 15:35:46;;;;;;;0.68;0.20;;;11.40;99.90;;;;;;4973761;28;20034;-85
2021/09/30 15:38:13;;;;;;;0.98;0.40;;;11.40;99.90;;;;;;4972882;28;20092;-87
2021/09/30 15:40:40;;;;;;;0.22;0.22;;;11.40;99.90;;;;;;4967752;28;20041;-85
2021/09/30 15:43:06;;;;;;;0.70;0.30;;;11.30;99.90;;;;;;4993825;28;20030;-85
2021/09/30 15:45:32;;;;;;;0.50;0.40;;;11.20;99.90;;;;;;4963921;28;20026;-86
2021/09/30 15:47:57;;;;;;;2.40;0.47;;;11.20;99.90;;;;;;4983987;28;20129;-86
2021/09/30 15:50:24;;;;;;;1.00;0.30;;;11.20;99.90;;;;;;4994853;28;20515;-87
2021/09/30 15:52:51;;;;;;;0.60;0.30;;;11.20;99.90;;;;;;4976512;28;20058;-87
2021/09/30 15:55:17;;;;;;;0.22;0.22;;;11.10;99.90;;;;;;4976193;28;20129;-87